sensor_id;sensor_type;location;lat;lon;timestamp;P1;durP1;ratioP1;P2;durP2;ratioP2
80584;SDS011;70137;56.482;9.154;2023-08-06T00:00:37;1.80;;;1.38;;
80584;SDS011;70137;56.482;9.154;2023-08-06T00:03:03;2.22;;;1.52;;
80584;SDS011;70137;56.482;9.154;2023-08-06T00:05:28;5.72;;;1.60;;
80584;SDS011;70137;56.482;9.154;2023-08-06T00:07:53;5.18;;;1.58;;
80584;SDS011;70137;56.482;9.154;2023-08-06T00:10:19;4.57;;;1.60;;
80584;SDS011;70137;56.482;9.154;2023-08-06T00:12:44;7.43;;;3.20;;
80584;SDS011;70137;56.482;9.154;2023-08-06T00:15:10;2.35;;;1.50;;
80584;SDS011;70137;56.482;9.154;2023-08-06T00:17:36;3.30;;;1.50;;
80584;SDS011;70137;56.482;9.154;2023-08-06T00:20:02;4.15;;;1.83;;
80584;SDS011;70137;56.482;9.154;2023-08-06T00:22:31;3.17;;;1.58;;
80584;SDS011;70137;56.482;9.154;2023-08-06T00:24:57;5.88;;;1.90;;
80584;SDS011;70137;56.482;9.154;2023-08-06T00:27:23;6.88;;;2.20;;
80584;SDS011;70137;56.482;9.154;2023-08-06T00:29:48;5.32;;;1.70;;
80584;SDS011;70137;56.482;9.154;2023-08-06T00:32:13;3.78;;;1.70;;
80584;SDS011;70137;56.482;9.154;2023-08-06T00:34:39;2.88;;;1.70;;
80584;SDS011;70137;56.482;9.154;2023-08-06T00:37:04;4.82;;;1.50;;
80584;SDS011;70137;56.482;9.154;2023-08-06T00:39:30;6.65;;;1.90;;
80584;SDS011;70137;56.482;9.154;2023-08-06T00:41:55;5.15;;;1.52;;
80584;SDS011;70137;56.482;9.154;2023-08-06T00:44:20;6.55;;;1.70;;
80584;SDS011;70137;56.482;9.154;2023-08-06T00:46:46;3.65;;;1.50;;
80584;SDS011;70137;56.482;9.154;2023-08-06T00:49:12;4.20;;;1.83;;
80584;SDS011;70137;56.482;9.154;2023-08-06T00:51:37;3.67;;;1.60;;
80584;SDS011;70137;56.482;9.154;2023-08-06T00:54:03;7.32;;;1.85;;
80584;SDS011;70137;56.482;9.154;2023-08-06T00:56:28;5.25;;;1.52;;
80584;SDS011;70137;56.482;9.154;2023-08-06T00:58:54;3.63;;;1.73;;
80584;SDS011;70137;56.482;9.154;2023-08-06T01:01:20;6.78;;;2.13;;
80584;SDS011;70137;56.482;9.154;2023-08-06T01:03:45;2.88;;;1.65;;
80584;SDS011;70137;56.482;9.154;2023-08-06T01:06:11;5.32;;;1.92;;
80584;SDS011;70137;56.482;9.154;2023-08-06T01:14:13;5.72;;;1.80;;
80584;SDS011;70137;56.482;9.154;2023-08-06T01:16:43;6.05;;;1.90;;
80584;SDS011;70137;56.482;9.154;2023-08-06T01:19:18;4.93;;;1.50;;
80584;SDS011;70137;56.482;9.154;2023-08-06T01:21:43;4.30;;;1.50;;
80584;SDS011;70137;56.482;9.154;2023-08-06T01:24:09;3.50;;;1.45;;
80584;SDS011;70137;56.482;9.154;2023-08-06T01:29:28;4.93;;;1.50;;
80584;SDS011;70137;56.482;9.154;2023-08-06T01:32:07;3.40;;;1.50;;
80584;SDS011;70137;56.482;9.154;2023-08-06T01:34:35;2.78;;;1.92;;
80584;SDS011;70137;56.482;9.154;2023-08-06T01:37:04;2.50;;;1.65;;
80584;SDS011;70137;56.482;9.154;2023-08-06T01:39:32;2.95;;;1.48;;
80584;SDS011;70137;56.482;9.154;2023-08-06T01:41:58;3.40;;;1.90;;
80584;SDS011;70137;56.482;9.154;2023-08-06T01:44:23;4.20;;;1.83;;
80584;SDS011;70137;56.482;9.154;2023-08-06T01:46:48;5.50;;;2.03;;
80584;SDS011;70137;56.482;9.154;2023-08-06T01:49:14;5.10;;;2.15;;
80584;SDS011;70137;56.482;9.154;2023-08-06T01:51:39;6.15;;;1.90;;
80584;SDS011;70137;56.482;9.154;2023-08-06T01:54:04;2.97;;;1.60;;
80584;SDS011;70137;56.482;9.154;2023-08-06T01:56:30;3.53;;;1.80;;
80584;SDS011;70137;56.482;9.154;2023-08-06T01:58:55;1.77;;;1.58;;
80584;SDS011;70137;56.482;9.154;2023-08-06T02:01:20;4.68;;;1.38;;
80584;SDS011;70137;56.482;9.154;2023-08-06T02:03:46;4.97;;;1.60;;
80584;SDS011;70137;56.482;9.154;2023-08-06T02:06:11;3.17;;;1.83;;
80584;SDS011;70137;56.482;9.154;2023-08-06T02:08:36;5.68;;;1.75;;
80584;SDS011;70137;56.482;9.154;2023-08-06T02:11:02;3.78;;;1.40;;
80584;SDS011;70137;56.482;9.154;2023-08-06T02:13:28;2.55;;;1.35;;
80584;SDS011;70137;56.482;9.154;2023-08-06T02:15:53;2.22;;;1.48;;
80584;SDS011;70137;56.482;9.154;2023-08-06T02:18:18;1.98;;;1.48;;
80584;SDS011;70137;56.482;9.154;2023-08-06T02:20:43;2.67;;;1.65;;
80584;SDS011;70137;56.482;9.154;2023-08-06T02:23:21;4.43;;;1.73;;
80584;SDS011;70137;56.482;9.154;2023-08-06T02:25:46;1.90;;;1.25;;
80584;SDS011;70137;56.482;9.154;2023-08-06T02:28:11;3.97;;;1.60;;
80584;SDS011;70137;56.482;9.154;2023-08-06T02:30:37;2.42;;;1.60;;
80584;SDS011;70137;56.482;9.154;2023-08-06T02:33:02;2.20;;;1.60;;
80584;SDS011;70137;56.482;9.154;2023-08-06T02:35:27;7.50;;;1.70;;
80584;SDS011;70137;56.482;9.154;2023-08-06T02:37:53;9.32;;;1.98;;
80584;SDS011;70137;56.482;9.154;2023-08-06T02:40:18;7.00;;;2.00;;
80584;SDS011;70137;56.482;9.154;2023-08-06T02:42:43;4.60;;;1.70;;
80584;SDS011;70137;56.482;9.154;2023-08-06T02:45:09;3.33;;;1.77;;
80584;SDS011;70137;56.482;9.154;2023-08-06T02:47:34;2.50;;;1.20;;
80584;SDS011;70137;56.482;9.154;2023-08-06T02:49:59;6.03;;;1.60;;
80584;SDS011;70137;56.482;9.154;2023-08-06T02:52:25;4.32;;;1.73;;
80584;SDS011;70137;56.482;9.154;2023-08-06T02:54:50;7.75;;;1.65;;
80584;SDS011;70137;56.482;9.154;2023-08-06T02:57:15;4.32;;;1.90;;
80584;SDS011;70137;56.482;9.154;2023-08-06T02:59:40;4.60;;;1.50;;
80584;SDS011;70137;56.482;9.154;2023-08-06T03:02:06;4.57;;;1.80;;
80584;SDS011;70137;56.482;9.154;2023-08-06T03:04:31;3.05;;;1.90;;
80584;SDS011;70137;56.482;9.154;2023-08-06T03:06:56;4.25;;;1.48;;
80584;SDS011;70137;56.482;9.154;2023-08-06T03:09:22;2.50;;;1.63;;
80584;SDS011;70137;56.482;9.154;2023-08-06T03:11:47;2.95;;;1.50;;
80584;SDS011;70137;56.482;9.154;2023-08-06T03:14:12;2.83;;;1.67;;
80584;SDS011;70137;56.482;9.154;2023-08-06T03:16:38;3.67;;;1.60;;
80584;SDS011;70137;56.482;9.154;2023-08-06T03:19:03;5.18;;;1.50;;
80584;SDS011;70137;56.482;9.154;2023-08-06T03:21:28;3.30;;;1.60;;
80584;SDS011;70137;56.482;9.154;2023-08-06T03:23:53;5.57;;;1.85;;
80584;SDS011;70137;56.482;9.154;2023-08-06T03:26:19;3.75;;;1.65;;
80584;SDS011;70137;56.482;9.154;2023-08-06T03:28:44;2.90;;;1.60;;
80584;SDS011;70137;56.482;9.154;2023-08-06T03:31:09;2.38;;;1.60;;
80584;SDS011;70137;56.482;9.154;2023-08-06T03:33:35;3.97;;;1.40;;
80584;SDS011;70137;56.482;9.154;2023-08-06T03:36:00;2.20;;;1.33;;
80584;SDS011;70137;56.482;9.154;2023-08-06T03:38:26;2.47;;;1.38;;
80584;SDS011;70137;56.482;9.154;2023-08-06T03:40:52;2.78;;;1.60;;
80584;SDS011;70137;56.482;9.154;2023-08-06T03:43:18;2.40;;;1.67;;
80584;SDS011;70137;56.482;9.154;2023-08-06T03:45:43;4.32;;;1.95;;
80584;SDS011;70137;56.482;9.154;2023-08-06T03:48:08;2.03;;;1.70;;
80584;SDS011;70137;56.482;9.154;2023-08-06T03:50:34;4.25;;;2.00;;
80584;SDS011;70137;56.482;9.154;2023-08-06T03:53:00;3.55;;;1.70;;
80584;SDS011;70137;56.482;9.154;2023-08-06T03:55:25;2.55;;;1.83;;
80584;SDS011;70137;56.482;9.154;2023-08-06T03:57:50;4.93;;;1.70;;
80584;SDS011;70137;56.482;9.154;2023-08-06T04:00:16;3.40;;;2.00;;
80584;SDS011;70137;56.482;9.154;2023-08-06T04:02:41;2.83;;;2.10;;
80584;SDS011;70137;56.482;9.154;2023-08-06T04:05:07;3.10;;;1.90;;
80584;SDS011;70137;56.482;9.154;2023-08-06T04:07:32;4.28;;;2.30;;
80584;SDS011;70137;56.482;9.154;2023-08-06T04:09:58;4.82;;;2.33;;
80584;SDS011;70137;56.482;9.154;2023-08-06T04:12:25;4.28;;;1.88;;
80584;SDS011;70137;56.482;9.154;2023-08-06T04:14:52;6.85;;;2.45;;
80584;SDS011;70137;56.482;9.154;2023-08-06T04:17:18;3.92;;;2.20;;
80584;SDS011;70137;56.482;9.154;2023-08-06T04:19:48;4.13;;;2.03;;
80584;SDS011;70137;56.482;9.154;2023-08-06T04:22:15;8.55;;;2.53;;
80584;SDS011;70137;56.482;9.154;2023-08-06T04:24:40;2.70;;;1.92;;
80584;SDS011;70137;56.482;9.154;2023-08-06T04:27:07;5.30;;;2.50;;
80584;SDS011;70137;56.482;9.154;2023-08-06T04:29:33;2.88;;;2.13;;
80584;SDS011;70137;56.482;9.154;2023-08-06T04:31:58;4.53;;;2.33;;
80584;SDS011;70137;56.482;9.154;2023-08-06T04:34:23;4.63;;;2.40;;
80584;SDS011;70137;56.482;9.154;2023-08-06T04:36:49;3.42;;;2.38;;
80584;SDS011;70137;56.482;9.154;2023-08-06T04:39:14;7.30;;;2.50;;
80584;SDS011;70137;56.482;9.154;2023-08-06T04:41:39;3.97;;;2.67;;
80584;SDS011;70137;56.482;9.154;2023-08-06T04:44:05;4.75;;;3.00;;
80584;SDS011;70137;56.482;9.154;2023-08-06T04:46:30;5.88;;;2.95;;
80584;SDS011;70137;56.482;9.154;2023-08-06T04:48:55;5.55;;;2.55;;
80584;SDS011;70137;56.482;9.154;2023-08-06T04:51:21;4.38;;;2.63;;
80584;SDS011;70137;56.482;9.154;2023-08-06T04:53:46;4.65;;;2.58;;
80584;SDS011;70137;56.482;9.154;2023-08-06T04:56:11;4.60;;;2.13;;
80584;SDS011;70137;56.482;9.154;2023-08-06T04:58:37;6.97;;;3.25;;
80584;SDS011;70137;56.482;9.154;2023-08-06T05:01:02;6.95;;;3.35;;
80584;SDS011;70137;56.482;9.154;2023-08-06T05:03:27;8.95;;;3.10;;
80584;SDS011;70137;56.482;9.154;2023-08-06T05:05:53;9.25;;;3.67;;
80584;SDS011;70137;56.482;9.154;2023-08-06T05:08:18;6.45;;;3.20;;
80584;SDS011;70137;56.482;9.154;2023-08-06T05:10:44;9.02;;;3.90;;
80584;SDS011;70137;56.482;9.154;2023-08-06T05:13:10;4.45;;;2.97;;
80584;SDS011;70137;56.482;9.154;2023-08-06T05:15:35;7.88;;;3.33;;
80584;SDS011;70137;56.482;9.154;2023-08-06T05:18:00;7.72;;;3.53;;
80584;SDS011;70137;56.482;9.154;2023-08-06T05:20:26;5.38;;;3.03;;
80584;SDS011;70137;56.482;9.154;2023-08-06T05:22:51;4.35;;;3.20;;
80584;SDS011;70137;56.482;9.154;2023-08-06T05:25:16;4.82;;;3.03;;
80584;SDS011;70137;56.482;9.154;2023-08-06T05:27:42;4.60;;;3.17;;
80584;SDS011;70137;56.482;9.154;2023-08-06T05:30:07;5.10;;;3.20;;
80584;SDS011;70137;56.482;9.154;2023-08-06T05:32:33;4.43;;;2.80;;
80584;SDS011;70137;56.482;9.154;2023-08-06T05:34:59;5.75;;;3.00;;
80584;SDS011;70137;56.482;9.154;2023-08-06T05:37:24;5.50;;;2.90;;
80584;SDS011;70137;56.482;9.154;2023-08-06T05:39:49;6.60;;;3.15;;
80584;SDS011;70137;56.482;9.154;2023-08-06T05:42:15;6.70;;;3.42;;
80584;SDS011;70137;56.482;9.154;2023-08-06T05:44:41;4.47;;;3.30;;
80584;SDS011;70137;56.482;9.154;2023-08-06T05:47:06;5.13;;;2.90;;
80584;SDS011;70137;56.482;9.154;2023-08-06T05:49:31;7.18;;;3.40;;
80584;SDS011;70137;56.482;9.154;2023-08-06T05:51:56;5.50;;;3.25;;
80584;SDS011;70137;56.482;9.154;2023-08-06T05:54:22;6.43;;;3.42;;
80584;SDS011;70137;56.482;9.154;2023-08-06T05:56:47;4.53;;;3.47;;
80584;SDS011;70137;56.482;9.154;2023-08-06T05:59:12;9.55;;;3.92;;
80584;SDS011;70137;56.482;9.154;2023-08-06T06:01:38;5.25;;;3.58;;
80584;SDS011;70137;56.482;9.154;2023-08-06T06:04:03;5.07;;;3.30;;
80584;SDS011;70137;56.482;9.154;2023-08-06T06:06:29;8.50;;;3.70;;
80584;SDS011;70137;56.482;9.154;2023-08-06T06:08:54;6.15;;;3.60;;
80584;SDS011;70137;56.482;9.154;2023-08-06T06:11:19;7.10;;;3.60;;
80584;SDS011;70137;56.482;9.154;2023-08-06T06:13:46;7.45;;;3.80;;
80584;SDS011;70137;56.482;9.154;2023-08-06T06:16:12;8.70;;;4.03;;
80584;SDS011;70137;56.482;9.154;2023-08-06T06:18:38;6.78;;;3.97;;
80584;SDS011;70137;56.482;9.154;2023-08-06T06:21:03;7.53;;;4.28;;
80584;SDS011;70137;56.482;9.154;2023-08-06T06:23:28;7.75;;;3.90;;
80584;SDS011;70137;56.482;9.154;2023-08-06T06:25:54;8.45;;;4.22;;
80584;SDS011;70137;56.482;9.154;2023-08-06T06:28:20;6.47;;;3.88;;
80584;SDS011;70137;56.482;9.154;2023-08-06T06:30:46;7.80;;;3.97;;
80584;SDS011;70137;56.482;9.154;2023-08-06T06:33:11;6.90;;;4.22;;
80584;SDS011;70137;56.482;9.154;2023-08-06T06:35:36;7.00;;;3.97;;
80584;SDS011;70137;56.482;9.154;2023-08-06T06:38:02;5.97;;;4.00;;
80584;SDS011;70137;56.482;9.154;2023-08-06T06:40:27;5.65;;;3.58;;
80584;SDS011;70137;56.482;9.154;2023-08-06T06:42:53;8.93;;;4.13;;
80584;SDS011;70137;56.482;9.154;2023-08-06T06:45:18;8.68;;;4.30;;
80584;SDS011;70137;56.482;9.154;2023-08-06T06:47:43;8.45;;;4.85;;
80584;SDS011;70137;56.482;9.154;2023-08-06T06:50:09;7.88;;;4.55;;
80584;SDS011;70137;56.482;9.154;2023-08-06T06:52:34;8.98;;;4.50;;
80584;SDS011;70137;56.482;9.154;2023-08-06T06:55:00;6.15;;;4.70;;
80584;SDS011;70137;56.482;9.154;2023-08-06T06:57:26;8.15;;;4.40;;
80584;SDS011;70137;56.482;9.154;2023-08-06T06:59:51;6.38;;;4.82;;
80584;SDS011;70137;56.482;9.154;2023-08-06T07:02:16;9.93;;;4.45;;
80584;SDS011;70137;56.482;9.154;2023-08-06T07:04:41;6.90;;;4.00;;
80584;SDS011;70137;56.482;9.154;2023-08-06T07:07:07;6.43;;;4.22;;
80584;SDS011;70137;56.482;9.154;2023-08-06T07:09:32;7.75;;;3.55;;
80584;SDS011;70137;56.482;9.154;2023-08-06T07:11:57;7.63;;;3.72;;
80584;SDS011;70137;56.482;9.154;2023-08-06T07:14:25;7.40;;;4.00;;
80584;SDS011;70137;56.482;9.154;2023-08-06T07:16:50;8.93;;;4.20;;
80584;SDS011;70137;56.482;9.154;2023-08-06T07:19:16;8.65;;;4.53;;
80584;SDS011;70137;56.482;9.154;2023-08-06T07:21:41;3.65;;;3.08;;
80584;SDS011;70137;56.482;9.154;2023-08-06T07:24:06;6.57;;;4.07;;
80584;SDS011;70137;56.482;9.154;2023-08-06T07:26:32;6.65;;;4.00;;
80584;SDS011;70137;56.482;9.154;2023-08-06T07:28:57;5.80;;;3.45;;
80584;SDS011;70137;56.482;9.154;2023-08-06T07:31:22;5.22;;;3.97;;
80584;SDS011;70137;56.482;9.154;2023-08-06T07:33:48;6.03;;;3.90;;
80584;SDS011;70137;56.482;9.154;2023-08-06T07:36:14;8.60;;;3.50;;
80584;SDS011;70137;56.482;9.154;2023-08-06T07:38:40;8.50;;;3.55;;
80584;SDS011;70137;56.482;9.154;2023-08-06T07:41:05;6.13;;;3.95;;
80584;SDS011;70137;56.482;9.154;2023-08-06T07:43:31;7.13;;;4.10;;
80584;SDS011;70137;56.482;9.154;2023-08-06T07:46:00;10.70;;;3.70;;
80584;SDS011;70137;56.482;9.154;2023-08-06T07:48:26;5.80;;;3.63;;
80584;SDS011;70137;56.482;9.154;2023-08-06T07:50:52;6.53;;;3.70;;
80584;SDS011;70137;56.482;9.154;2023-08-06T07:53:21;5.72;;;4.05;;
80584;SDS011;70137;56.482;9.154;2023-08-06T07:55:51;7.13;;;4.05;;
80584;SDS011;70137;56.482;9.154;2023-08-06T07:58:17;6.45;;;3.30;;
80584;SDS011;70137;56.482;9.154;2023-08-06T08:00:43;7.63;;;3.17;;
80584;SDS011;70137;56.482;9.154;2023-08-06T08:03:10;6.75;;;3.55;;
80584;SDS011;70137;56.482;9.154;2023-08-06T08:05:37;4.93;;;2.80;;
80584;SDS011;70137;56.482;9.154;2023-08-06T08:08:02;5.22;;;2.72;;
80584;SDS011;70137;56.482;9.154;2023-08-06T08:10:27;3.47;;;2.38;;
80584;SDS011;70137;56.482;9.154;2023-08-06T08:12:53;4.85;;;2.78;;
80584;SDS011;70137;56.482;9.154;2023-08-06T08:15:18;4.13;;;2.47;;
80584;SDS011;70137;56.482;9.154;2023-08-06T08:17:43;6.35;;;2.67;;
80584;SDS011;70137;56.482;9.154;2023-08-06T08:20:09;4.93;;;2.30;;
80584;SDS011;70137;56.482;9.154;2023-08-06T08:22:34;3.55;;;2.20;;
80584;SDS011;70137;56.482;9.154;2023-08-06T08:25:00;5.43;;;2.40;;
80584;SDS011;70137;56.482;9.154;2023-08-06T08:27:25;3.17;;;1.70;;
80584;SDS011;70137;56.482;9.154;2023-08-06T08:29:51;4.68;;;1.92;;
80584;SDS011;70137;56.482;9.154;2023-08-06T08:32:16;2.55;;;1.88;;
80584;SDS011;70137;56.482;9.154;2023-08-06T08:34:41;2.67;;;1.52;;
80584;SDS011;70137;56.482;9.154;2023-08-06T08:37:07;2.83;;;1.83;;
80584;SDS011;70137;56.482;9.154;2023-08-06T08:39:32;3.78;;;1.88;;
80584;SDS011;70137;56.482;9.154;2023-08-06T08:41:57;3.03;;;1.60;;
80584;SDS011;70137;56.482;9.154;2023-08-06T08:44:23;4.13;;;2.15;;
80584;SDS011;70137;56.482;9.154;2023-08-06T08:46:53;3.58;;;1.75;;
80584;SDS011;70137;56.482;9.154;2023-08-06T08:49:18;4.10;;;2.10;;
80584;SDS011;70137;56.482;9.154;2023-08-06T08:51:46;2.60;;;1.60;;
80584;SDS011;70137;56.482;9.154;2023-08-06T08:54:13;4.03;;;1.63;;
80584;SDS011;70137;56.482;9.154;2023-08-06T08:56:40;4.10;;;1.73;;
80584;SDS011;70137;56.482;9.154;2023-08-06T08:59:05;3.03;;;1.63;;
80584;SDS011;70137;56.482;9.154;2023-08-06T09:01:31;4.40;;;1.80;;
80584;SDS011;70137;56.482;9.154;2023-08-06T09:03:57;2.42;;;1.52;;
80584;SDS011;70137;56.482;9.154;2023-08-06T09:06:25;3.25;;;1.90;;
80584;SDS011;70137;56.482;9.154;2023-08-06T09:09:02;3.97;;;1.73;;
80584;SDS011;70137;56.482;9.154;2023-08-06T09:11:34;1.70;;;1.52;;
80584;SDS011;70137;56.482;9.154;2023-08-06T09:14:08;2.55;;;1.10;;
80584;SDS011;70137;56.482;9.154;2023-08-06T09:16:36;2.15;;;1.10;;
80584;SDS011;70137;56.482;9.154;2023-08-06T09:19:12;4.53;;;1.00;;
80584;SDS011;70137;56.482;9.154;2023-08-06T09:21:40;1.45;;;1.00;;
80584;SDS011;70137;56.482;9.154;2023-08-06T09:24:10;1.65;;;1.00;;
80584;SDS011;70137;56.482;9.154;2023-08-06T09:26:36;4.22;;;1.08;;
80584;SDS011;70137;56.482;9.154;2023-08-06T09:29:04;2.35;;;1.10;;
80584;SDS011;70137;56.482;9.154;2023-08-06T09:31:40;1.38;;;0.82;;
80584;SDS011;70137;56.482;9.154;2023-08-06T09:39:17;1.73;;;1.00;;
80584;SDS011;70137;56.482;9.154;2023-08-06T09:41:45;1.63;;;1.23;;
80584;SDS011;70137;56.482;9.154;2023-08-06T09:44:16;2.67;;;0.95;;
80584;SDS011;70137;56.482;9.154;2023-08-06T09:46:47;2.53;;;1.02;;
80584;SDS011;70137;56.482;9.154;2023-08-06T09:49:17;2.63;;;0.98;;
80584;SDS011;70137;56.482;9.154;2023-08-06T09:51:44;2.03;;;0.98;;
80584;SDS011;70137;56.482;9.154;2023-08-06T09:54:16;3.17;;;1.00;;
80584;SDS011;70137;56.482;9.154;2023-08-06T09:56:42;7.70;;;2.50;;
80584;SDS011;70137;56.482;9.154;2023-08-06T09:59:08;2.95;;;1.17;;
80584;SDS011;70137;56.482;9.154;2023-08-06T10:01:36;2.13;;;1.20;;
80584;SDS011;70137;56.482;9.154;2023-08-06T10:04:02;1.50;;;1.40;;
80584;SDS011;70137;56.482;9.154;2023-08-06T10:06:29;3.67;;;1.33;;
80584;SDS011;70137;56.482;9.154;2023-08-06T10:08:58;1.50;;;1.33;;
80584;SDS011;70137;56.482;9.154;2023-08-06T10:11:24;3.08;;;1.40;;
80584;SDS011;70137;56.482;9.154;2023-08-06T10:13:52;3.50;;;1.30;;
80584;SDS011;70137;56.482;9.154;2023-08-06T10:16:20;4.68;;;1.48;;
80584;SDS011;70137;56.482;9.154;2023-08-06T10:18:46;1.42;;;1.10;;
80584;SDS011;70137;56.482;9.154;2023-08-06T10:21:13;2.28;;;1.02;;
80584;SDS011;70137;56.482;9.154;2023-08-06T10:23:40;2.85;;;1.33;;
80584;SDS011;70137;56.482;9.154;2023-08-06T10:26:05;3.83;;;1.42;;
80584;SDS011;70137;56.482;9.154;2023-08-06T10:28:34;2.72;;;1.20;;
80584;SDS011;70137;56.482;9.154;2023-08-06T10:31:01;3.42;;;1.55;;
80584;SDS011;70137;56.482;9.154;2023-08-06T10:33:39;2.67;;;1.52;;
80584;SDS011;70137;56.482;9.154;2023-08-06T10:36:09;2.15;;;1.30;;
80584;SDS011;70137;56.482;9.154;2023-08-06T10:38:36;2.47;;;1.27;;
80584;SDS011;70137;56.482;9.154;2023-08-06T10:41:09;4.55;;;1.40;;
80584;SDS011;70137;56.482;9.154;2023-08-06T10:43:47;3.15;;;1.30;;
80584;SDS011;70137;56.482;9.154;2023-08-06T10:46:23;4.82;;;1.23;;
80584;SDS011;70137;56.482;9.154;2023-08-06T10:48:51;1.70;;;1.00;;
80584;SDS011;70137;56.482;9.154;2023-08-06T10:51:17;4.57;;;1.08;;
80584;SDS011;70137;56.482;9.154;2023-08-06T10:53:43;3.13;;;1.30;;
80584;SDS011;70137;56.482;9.154;2023-08-06T10:58:44;1.58;;;1.10;;
80584;SDS011;70137;56.482;9.154;2023-08-06T11:01:11;7.55;;;1.33;;
80584;SDS011;70137;56.482;9.154;2023-08-06T11:03:37;2.35;;;1.30;;
80584;SDS011;70137;56.482;9.154;2023-08-06T11:06:03;1.58;;;1.27;;
80584;SDS011;70137;56.482;9.154;2023-08-06T11:08:32;1.20;;;1.10;;
80584;SDS011;70137;56.482;9.154;2023-08-06T11:11:08;4.88;;;1.10;;
80584;SDS011;70137;56.482;9.154;2023-08-06T11:13:38;2.17;;;1.17;;
80584;SDS011;70137;56.482;9.154;2023-08-06T11:16:05;2.65;;;1.00;;
80584;SDS011;70137;56.482;9.154;2023-08-06T11:18:31;3.15;;;1.20;;
80584;SDS011;70137;56.482;9.154;2023-08-06T11:20:58;0.80;;;0.70;;
80584;SDS011;70137;56.482;9.154;2023-08-06T11:23:28;4.15;;;1.10;;
80584;SDS011;70137;56.482;9.154;2023-08-06T11:25:54;5.22;;;1.10;;
80584;SDS011;70137;56.482;9.154;2023-08-06T11:28:20;1.55;;;0.90;;
80584;SDS011;70137;56.482;9.154;2023-08-06T11:30:49;1.95;;;1.00;;
80584;SDS011;70137;56.482;9.154;2023-08-06T11:33:19;3.17;;;1.00;;
80584;SDS011;70137;56.482;9.154;2023-08-06T11:35:46;1.85;;;1.00;;
80584;SDS011;70137;56.482;9.154;2023-08-06T11:38:13;3.30;;;1.15;;
80584;SDS011;70137;56.482;9.154;2023-08-06T11:40:38;1.63;;;0.80;;
80584;SDS011;70137;56.482;9.154;2023-08-06T11:43:05;3.28;;;1.00;;
80584;SDS011;70137;56.482;9.154;2023-08-06T11:45:31;2.55;;;1.10;;
80584;SDS011;70137;56.482;9.154;2023-08-06T11:47:56;2.67;;;1.00;;
80584;SDS011;70137;56.482;9.154;2023-08-06T11:50:25;2.78;;;1.13;;
80584;SDS011;70137;56.482;9.154;2023-08-06T11:52:56;4.93;;;1.20;;
80584;SDS011;70137;56.482;9.154;2023-08-06T11:55:23;2.50;;;1.08;;
80584;SDS011;70137;56.482;9.154;2023-08-06T11:57:49;4.32;;;1.02;;
80584;SDS011;70137;56.482;9.154;2023-08-06T12:00:15;4.55;;;1.15;;
80584;SDS011;70137;56.482;9.154;2023-08-06T12:02:43;2.50;;;1.10;;
80584;SDS011;70137;56.482;9.154;2023-08-06T12:05:13;3.75;;;1.02;;
80584;SDS011;70137;56.482;9.154;2023-08-06T12:07:41;1.98;;;0.90;;
80584;SDS011;70137;56.482;9.154;2023-08-06T12:10:07;4.15;;;1.20;;
80584;SDS011;70137;56.482;9.154;2023-08-06T12:12:34;3.00;;;0.95;;
80584;SDS011;70137;56.482;9.154;2023-08-06T12:15:00;2.38;;;1.20;;
80584;SDS011;70137;56.482;9.154;2023-08-06T12:17:25;2.97;;;1.08;;
80584;SDS011;70137;56.482;9.154;2023-08-06T12:19:51;2.72;;;1.20;;
80584;SDS011;70137;56.482;9.154;2023-08-06T12:22:16;2.30;;;1.00;;
80584;SDS011;70137;56.482;9.154;2023-08-06T12:24:42;2.97;;;1.00;;
80584;SDS011;70137;56.482;9.154;2023-08-06T12:27:08;4.68;;;1.30;;
80584;SDS011;70137;56.482;9.154;2023-08-06T12:29:34;3.30;;;1.10;;
80584;SDS011;70137;56.482;9.154;2023-08-06T12:31:59;3.97;;;0.93;;
80584;SDS011;70137;56.482;9.154;2023-08-06T12:34:24;2.88;;;1.00;;
80584;SDS011;70137;56.482;9.154;2023-08-06T12:36:50;3.15;;;0.90;;
80584;SDS011;70137;56.482;9.154;2023-08-06T12:39:15;1.77;;;0.95;;
80584;SDS011;70137;56.482;9.154;2023-08-06T12:41:40;1.83;;;0.80;;
80584;SDS011;70137;56.482;9.154;2023-08-06T12:44:06;2.42;;;0.85;;
80584;SDS011;70137;56.482;9.154;2023-08-06T12:46:31;1.95;;;0.90;;
80584;SDS011;70137;56.482;9.154;2023-08-06T12:48:56;1.90;;;1.00;;
80584;SDS011;70137;56.482;9.154;2023-08-06T12:51:22;4.28;;;1.20;;
80584;SDS011;70137;56.482;9.154;2023-08-06T12:53:48;3.03;;;1.00;;
80584;SDS011;70137;56.482;9.154;2023-08-06T12:56:14;1.90;;;0.77;;
80584;SDS011;70137;56.482;9.154;2023-08-06T12:58:39;4.72;;;0.98;;
80584;SDS011;70137;56.482;9.154;2023-08-06T13:01:05;2.58;;;1.00;;
80584;SDS011;70137;56.482;9.154;2023-08-06T13:03:30;4.53;;;1.15;;
80584;SDS011;70137;56.482;9.154;2023-08-06T13:05:55;3.67;;;0.90;;
80584;SDS011;70137;56.482;9.154;2023-08-06T13:08:23;1.70;;;0.70;;
80584;SDS011;70137;56.482;9.154;2023-08-06T13:10:48;2.08;;;1.00;;
80584;SDS011;70137;56.482;9.154;2023-08-06T13:13:14;2.47;;;0.90;;
80584;SDS011;70137;56.482;9.154;2023-08-06T13:15:39;1.65;;;1.15;;
80584;SDS011;70137;56.482;9.154;2023-08-06T13:18:04;1.77;;;0.80;;
80584;SDS011;70137;56.482;9.154;2023-08-06T13:20:30;3.85;;;1.13;;
80584;SDS011;70137;56.482;9.154;2023-08-06T13:22:55;3.10;;;1.00;;
80584;SDS011;70137;56.482;9.154;2023-08-06T13:25:23;1.83;;;0.73;;
80584;SDS011;70137;56.482;9.154;2023-08-06T13:27:48;3.25;;;0.70;;
80584;SDS011;70137;56.482;9.154;2023-08-06T13:30:14;2.47;;;1.05;;
80584;SDS011;70137;56.482;9.154;2023-08-06T13:32:39;1.55;;;0.70;;
80584;SDS011;70137;56.482;9.154;2023-08-06T13:35:04;3.17;;;0.98;;
80584;SDS011;70137;56.482;9.154;2023-08-06T13:37:30;4.65;;;0.75;;
80584;SDS011;70137;56.482;9.154;2023-08-06T13:39:55;1.30;;;0.82;;
80584;SDS011;70137;56.482;9.154;2023-08-06T13:42:21;3.50;;;0.85;;
80584;SDS011;70137;56.482;9.154;2023-08-06T13:44:47;1.02;;;0.60;;
80584;SDS011;70137;56.482;9.154;2023-08-06T13:47:12;4.05;;;0.90;;
80584;SDS011;70137;56.482;9.154;2023-08-06T13:49:37;2.35;;;0.80;;
80584;SDS011;70137;56.482;9.154;2023-08-06T13:52:03;1.98;;;0.60;;
80584;SDS011;70137;56.482;9.154;2023-08-06T13:54:29;1.08;;;0.80;;
80584;SDS011;70137;56.482;9.154;2023-08-06T13:56:54;2.38;;;0.70;;
80584;SDS011;70137;56.482;9.154;2023-08-06T13:59:20;2.20;;;0.82;;
80584;SDS011;70137;56.482;9.154;2023-08-06T14:01:45;1.55;;;0.60;;
80584;SDS011;70137;56.482;9.154;2023-08-06T14:04:11;1.02;;;0.70;;
80584;SDS011;70137;56.482;9.154;2023-08-06T14:06:37;3.72;;;0.88;;
80584;SDS011;70137;56.482;9.154;2023-08-06T14:09:03;0.93;;;0.68;;
80584;SDS011;70137;56.482;9.154;2023-08-06T14:11:28;3.05;;;0.80;;
80584;SDS011;70137;56.482;9.154;2023-08-06T14:13:53;0.88;;;0.70;;
80584;SDS011;70137;56.482;9.154;2023-08-06T14:16:19;3.17;;;0.77;;
80584;SDS011;70137;56.482;9.154;2023-08-06T14:18:44;2.65;;;0.80;;
80584;SDS011;70137;56.482;9.154;2023-08-06T14:21:09;1.80;;;0.55;;
80584;SDS011;70137;56.482;9.154;2023-08-06T14:23:35;2.35;;;0.70;;
80584;SDS011;70137;56.482;9.154;2023-08-06T14:26:00;3.22;;;0.80;;
80584;SDS011;70137;56.482;9.154;2023-08-06T14:28:25;0.60;;;0.60;;
80584;SDS011;70137;56.482;9.154;2023-08-06T14:30:51;2.97;;;0.80;;
80584;SDS011;70137;56.482;9.154;2023-08-06T14:33:16;3.05;;;1.00;;
80584;SDS011;70137;56.482;9.154;2023-08-06T14:35:41;29.80;;;1.90;;
80584;SDS011;70137;56.482;9.154;2023-08-06T14:38:07;3.50;;;1.00;;
80584;SDS011;70137;56.482;9.154;2023-08-06T14:40:32;5.88;;;2.97;;
80584;SDS011;70137;56.482;9.154;2023-08-06T14:43:02;2.38;;;0.90;;
80584;SDS011;70137;56.482;9.154;2023-08-06T14:45:27;4.95;;;0.90;;
80584;SDS011;70137;56.482;9.154;2023-08-06T14:47:53;2.78;;;1.13;;
80584;SDS011;70137;56.482;9.154;2023-08-06T14:50:18;4.00;;;0.90;;
80584;SDS011;70137;56.482;9.154;2023-08-06T14:52:43;1.85;;;0.70;;
80584;SDS011;70137;56.482;9.154;2023-08-06T14:55:09;2.20;;;0.88;;
80584;SDS011;70137;56.482;9.154;2023-08-06T14:57:34;3.78;;;0.82;;